메인 페이지
METAR-TAF:

METAR-TAF

공항 :

수폴스, 사우스다코타, 미국

위도: 43-34-37N, 경도: 096-45-13W, 고도: 435m

현재 날씨관측

예보는 42분 전, 10:56시(UTC)에 발표되었습니다.
무풍
온도 -3°C
습도 80%
기압 1013 hPa
시정: 16.1km
맑음

METAR: KFSD 281056Z 00000KT 10SM CLR M03/M06 A2992 RMK AO2 SLP149 T10331061

시각: 06:38 (11:38 UTC)

예보

예보는 7분 전, 11:31시(UTC)에 발표되었습니다.
예보 대상 시간: 28일 12시부터 29일 12시까지 (UTC)
남서6kt
시정: 10km
고도 25000ft 상공 구름 조금
28일 1900시부터 (UTC)
서북서11kt
시정: 10km
고도 25000ft 상공 구름 보통
28일 2100시부터 (UTC)
10kt, 순간 최대 풍속 16kt
시정: 10km
고도 25000ft 상공 구름 조금
29일 0200시부터 (UTC)
11kt
시정: 10km
고도 10000ft 상공 구름 보통
29일 0500시부터 (UTC)
9kt
시정: 10km
고도 2100ft 상공 흐림
29일 0700시부터 (UTC)
북북동9kt
시정: 9.7km
고도 1200ft 상공 흐림
박무
29일 1100시부터 (UTC)
5kt
시정: 9.7km
고도 800ft 상공 흐림
박무

TAF: KFSD 281131Z 2812/2912 23006KT P6SM FEW250 FM281900 30011KT P6SM SCT250 FM282100 35010G16KT P6SM FEW250 FM290200 01011KT P6SM SCT100 FM290500 01009KT P6SM OVC021 FM290700 02009KT 6SM BR OVC012 FM291100 01005KT 6SM BR OVC008

4,000개 이상의 공항 관측 자료 및 예보 (METAR 및 TAF 보고).

지도상에서 검색 가능한 기상관측소가 노란 점과 빨간 점으로 표시되어 있습니다.

기상관측소 명을 보려면 표시 위로 마우스를 이동하세요.

날씨 관측과 예보를 보려면 클릭하세요.

지도 변경 : 확대하려면 엑스 표시가 있는 녹색 버튼, 축소하려면 빼기 표시가 있는 녹색 버튼, 다음 페이지의 지도를 보려면 녹색 화살표를 클릭하세요.


METAR-TAF: